Time;durP1;ratioP1;P1;durP2;ratioP2;P2;SDS_P1;SDS_P2;PMS_P1;PMS_P2;Temp;Humidity;BMP_temperature;BMP_pressure;BME280_temperature;BME280_humidity;BME280_pressure;Samples;Min_cycle;Max_cycle;Signal;HPM_P1;HPM_P2
2023/09/13 00:02:22;;;;;;;17.77;11.30;;;;;;;19.80;71.72;97858.34;4409031;32;20177;-75
2023/09/13 00:04:49;;;;;;;18.15;12.35;;;;;;;20.18;70.53;97849.03;4409163;32;20454;-75
2023/09/13 00:07:18;;;;;;;17.27;11.85;;;;;;;19.74;72.44;97848.38;4409442;32;20467;-75
2023/09/13 00:09:45;;;;;;;20.77;12.73;;;;;;;19.43;73.72;97844.81;4408962;32;20494;-75
2023/09/13 00:12:13;;;;;;;18.87;12.00;;;;;;;19.71;72.93;97843.41;4409181;32;20086;-75
2023/09/13 00:14:39;;;;;;;17.98;12.05;;;;;;;19.44;74.70;97838.59;4409198;32;20094;-75
2023/09/13 00:17:06;;;;;;;18.45;12.15;;;;;;;19.73;73.03;97838.88;4408723;32;20407;-76
2023/09/13 00:19:34;;;;;;;20.00;12.10;;;;;;;19.50;73.41;97832.06;4409042;32;20455;-75
2023/09/13 00:22:01;;;;;;;20.00;11.98;;;;;;;19.54;73.15;97836.06;4409087;32;20097;-75
2023/09/13 00:24:29;;;;;;;21.35;12.70;;;;;;;19.94;71.14;97839.69;4408880;32;20173;-75
2023/09/13 00:26:55;;;;;;;20.40;12.35;;;;;;;19.31;74.07;97836.19;4408925;32;20153;-75
2023/09/13 00:29:22;;;;;;;20.33;12.80;;;;;;;19.34;74.33;97842.94;4408981;32;20102;-76
2023/09/13 00:31:49;;;;;;;18.23;12.07;;;;;;;19.20;74.82;97841.44;4408835;32;20100;-75
2023/09/13 00:34:17;;;;;;;19.98;12.77;;;;;;;19.98;70.95;97832.38;4409031;32;20086;-75
2023/09/13 00:36:44;;;;;;;20.27;12.55;;;;;;;19.44;73.54;97840.41;4408880;32;20140;-75
2023/09/13 00:39:12;;;;;;;18.15;12.45;;;;;;;19.29;74.45;97834.66;4408906;32;20109;-75
2023/09/13 00:41:39;;;;;;;18.98;12.30;;;;;;;19.30;74.56;97831.06;4408751;32;20170;-76
2023/09/13 00:44:06;;;;;;;19.17;12.82;;;;;;;19.22;74.20;97836.09;4408575;32;20087;-75
2023/09/13 00:46:33;;;;;;;20.42;12.02;;;;;;;19.19;74.17;97833.72;4408875;32;20684;-75
2023/09/13 00:49:01;;;;;;;17.90;11.55;;;;;;;19.51;72.67;97833.72;4408771;32;20105;-75
2023/09/13 00:51:28;;;;;;;18.70;12.13;;;;;;;19.30;73.27;97834.50;4395070;32;20156;-75
2023/09/13 00:53:56;;;;;;;19.25;12.02;;;;;;;19.46;72.78;97830.63;4410923;32;20100;-75
2023/09/13 00:56:23;;;;;;;17.98;11.45;;;;;;;19.35;73.04;97831.50;4410824;32;20153;-76
2023/09/13 00:58:51;;;;;;;23.60;12.75;;;;;;;19.33;73.43;97831.63;4397117;32;20173;-75
2023/09/13 01:01:18;;;;;;;17.92;12.00;;;;;;;19.19;74.52;97836.34;4410740;32;20102;-75
2023/09/13 01:03:46;;;;;;;19.73;12.25;;;;;;;18.90;75.58;97833.44;4410902;32;20070;-75
2023/09/13 01:06:14;;;;;;;21.65;12.00;;;;;;;19.27;74.08;97841.78;4410586;32;20114;-75
2023/09/13 01:08:42;;;;;;;19.70;12.00;;;;;;;19.17;74.28;97836.47;4410903;32;20094;-75
2023/09/13 01:11:10;;;;;;;19.15;11.95;;;;;;;19.46;72.32;97828.00;4410799;32;20102;-75
2023/09/13 01:13:38;;;;;;;21.58;12.02;;;;;;;19.32;73.55;97834.38;4410579;32;20117;-75
2023/09/13 01:16:17;;;;;;;21.98;12.98;;;;;;;19.19;74.34;97834.56;4397010;32;20153;-76
2023/09/13 01:18:58;;;;;;;19.08;12.27;;;;;;;19.15;75.40;97835.78;4386849;32;236009;-75
2023/09/13 01:21:38;;;;;;;21.33;12.27;;;;;;;19.37;74.31;97821.78;4394429;32;20504;-75
2023/09/13 01:24:23;;;;;;;21.02;13.57;;;;;;;18.73;77.83;97822.56;4395705;32;20121;-76
2023/09/13 01:27:09;;;;;;;18.55;12.60;;;;;;;19.13;76.21;97821.13;4395250;32;20148;-75
2023/09/13 01:29:36;;;;;;;18.65;12.13;;;;;;;19.05;76.23;97821.78;4394414;32;20137;-76
2023/09/13 01:32:03;;;;;;;19.25;12.43;;;;;;;19.21;75.32;97819.56;4395571;32;20086;-75
2023/09/13 01:34:31;;;;;;;20.75;13.02;;;;;;;19.05;76.14;97827.84;4395251;32;20074;-76
2023/09/13 01:36:58;;;;;;;20.50;12.60;;;;;;;18.98;76.24;97828.44;4395556;32;20161;-75
2023/09/13 01:39:26;;;;;;;19.55;12.23;;;;;;;19.15;75.55;97830.53;4395311;32;20110;-76
2023/09/13 01:41:56;;;;;;;21.17;11.95;;;;;;;19.18;76.46;97829.47;4394045;32;20138;-75
2023/09/13 01:44:23;;;;;;;23.85;12.55;;;;;;;19.37;75.39;97830.44;4394158;32;20165;-76
2023/09/13 01:46:51;;;;;;;20.90;13.15;;;;;;;18.91;78.01;97824.66;4394148;32;20107;-76
2023/09/13 01:49:20;;;;;;;21.15;12.73;;;;;;;19.04;77.36;97831.41;4394223;32;20106;-75
2023/09/13 01:51:48;;;;;;;19.45;12.37;;;;;;;19.08;77.73;97822.34;4394209;32;20106;-76
2023/09/13 01:54:18;;;;;;;20.25;13.27;;;;;;;18.72;79.35;97826.13;4393988;32;20090;-76
2023/09/13 01:56:45;;;;;;;18.83;12.60;;;;;;;18.97;78.92;97826.78;4394287;32;20106;-75
2023/09/13 01:59:12;;;;;;;17.87;11.90;;;;;;;19.27;77.41;97819.06;4395362;32;20102;-76
2023/09/13 02:01:39;;;;;;;21.15;13.07;;;;;;;18.88;79.23;97823.13;4394932;32;20162;-75
2023/09/13 02:04:07;;;;;;;20.48;12.98;;;;;;;18.75;80.54;97825.88;4394584;32;20172;-76
2023/09/13 02:06:34;;;;;;;23.55;12.98;;;;;;;19.09;79.66;97831.03;4395245;32;20114;-76
2023/09/13 02:09:01;;;;;;;20.12;13.27;;;;;;;18.69;82.12;97828.16;4395112;32;20146;-75
2023/09/13 02:11:28;;;;;;;20.73;12.50;;;;;;;18.16;84.80;97826.13;4395319;32;20146;-75
2023/09/13 02:13:55;;;;;;;19.65;12.52;;;;;;;19.10;79.25;97822.22;4395297;32;20129;-76
2023/09/13 02:16:21;;;;;;;17.65;12.02;;;;;;;19.52;75.33;97817.88;4394998;32;20129;-75
2023/09/13 02:18:49;;;;;;;19.23;11.68;;;;;;;19.26;75.00;97825.28;4405895;32;20526;-76
2023/09/13 02:21:16;;;;;;;20.15;12.50;;;;;;;19.64;73.12;97819.50;4410326;32;20086;-76
2023/09/13 02:23:43;;;;;;;18.65;12.00;;;;;;;19.28;75.12;97818.12;4410040;32;20466;-76
2023/09/13 02:26:28;;;;;;;20.15;11.93;;;;;;;19.32;75.38;97813.47;4410435;32;20441;-76
2023/09/13 02:28:56;;;;;;;21.77;12.35;;;;;;;19.60;74.06;97814.66;4410207;32;20401;-75
2023/09/13 02:31:23;;;;;;;17.67;12.15;;;;;;;19.49;75.35;97809.47;4410134;32;20086;-75
2023/09/13 02:33:51;;;;;;;23.73;12.77;;;;;;;19.16;77.14;97819.13;4396588;32;20437;-76
2023/09/13 02:36:18;;;;;;;21.35;12.68;;;;;;;18.91;78.70;97815.03;4410107;32;20429;-75
2023/09/13 02:38:45;;;;;;;22.73;12.55;;;;;;;19.40;77.27;97816.28;4410293;32;20159;-76
2023/09/13 02:41:12;;;;;;;18.58;11.90;;;;;;;19.25;77.99;97809.72;4410073;32;20153;-75
2023/09/13 02:43:42;;;;;;;19.15;12.85;;;;;;;19.06;78.71;97819.03;4410018;32;20112;-75
2023/09/13 02:46:09;;;;;;;19.80;12.52;;;;;;;19.34;77.09;97812.38;4410320;32;20108;-75
2023/09/13 02:48:36;;;;;;;19.90;12.57;;;;;;;19.11;78.44;97808.19;4410204;32;20155;-75
2023/09/13 02:51:03;;;;;;;19.12;12.63;;;;;;;19.58;76.30;97808.75;4409779;32;20460;-75
2023/09/13 02:53:31;;;;;;;20.08;12.88;;;;;;;19.32;76.24;97808.22;4410272;32;20130;-75
2023/09/13 02:56:05;;;;;;;20.42;12.93;;;;;;;19.26;77.02;97809.56;4409964;32;20093;-76
2023/09/13 02:58:32;;;;;;;20.88;13.00;;;;;;;19.48;75.77;97813.87;4409969;32;20090;-76
2023/09/13 03:01:03;;;;;;;19.87;11.75;;;;;;;19.64;74.47;97813.44;4409953;32;20130;-76
2023/09/13 03:03:31;;;;;;;19.95;12.23;;;;;;;19.65;74.49;97808.09;4410172;32;20077;-75
2023/09/13 03:06:06;;;;;;;21.67;13.40;;;;;;;19.31;75.47;97803.94;4409759;32;20109;-76
2023/09/13 03:08:33;;;;;;;19.52;12.48;;;;;;;19.22;76.46;97807.31;4410146;32;20086;-76
2023/09/13 03:11:11;;;;;;;20.42;12.50;;;;;;;19.22;76.41;97808.16;4409749;32;20110;-75
2023/09/13 03:13:38;;;;;;;27.95;13.95;;;;;;;19.58;75.13;97809.56;4410055;32;20146;-75
2023/09/13 03:16:18;;;;;;;20.05;12.10;;;;;;;19.77;73.99;97808.84;4408679;32;20164;-76
2023/09/13 03:18:46;;;;;;;20.23;12.88;;;;;;;19.66;74.66;97808.91;4409581;32;20094;-75
2023/09/13 03:21:13;;;;;;;19.08;13.10;;;;;;;19.67;74.28;97818.41;4396018;32;20372;-75
2023/09/13 03:23:42;;;;;;;19.35;13.18;;;;;;;19.49;75.00;97818.16;4409877;32;20074;-76
2023/09/13 03:26:21;;;;;;;22.85;13.90;;;;;;;19.16;77.47;97821.75;4395950;32;20164;-75
2023/09/13 03:28:50;;;;;;;19.92;12.73;;;;;;;19.17;79.03;97819.94;4396198;32;20124;-76
2023/09/13 03:31:18;;;;;;;19.65;13.50;;;;;;;19.10;78.71;97818.78;4409718;32;20104;-76
2023/09/13 03:33:47;;;;;;;21.42;13.05;;;;;;;19.39;75.85;97819.03;4409595;32;20074;-75
2023/09/13 03:36:15;;;;;;;21.75;13.55;;;;;;;19.03;77.71;97821.03;4409713;32;20098;-75
2023/09/13 03:38:43;;;;;;;20.55;13.93;;;;;;;19.21;77.50;97811.72;4409693;32;20451;-75
2023/09/13 03:41:12;;;;;;;19.85;13.65;;;;;;;19.14;77.77;97825.41;4409269;32;20104;-75
2023/09/13 03:43:39;;;;;;;21.30;13.27;;;;;;;19.45;76.47;97815.88;4396062;32;20226;-76
2023/09/13 03:46:06;;;;;;;22.20;12.68;;;;;;;19.54;75.69;97818.59;4409204;32;20106;-75
2023/09/13 03:48:35;;;;;;;25.05;12.60;;;;;;;19.44;75.68;97820.28;4409572;32;20388;-76
2023/09/13 03:51:03;;;;;;;22.13;13.80;;;;;;;18.87;76.29;97823.25;4409380;32;20090;-75
2023/09/13 03:53:30;;;;;;;20.62;14.07;;;;;;;18.62;76.34;97817.34;4395740;32;20121;-75
2023/09/13 03:55:58;;;;;;;24.75;13.27;;;;;;;18.95;75.89;97818.25;4409442;32;20109;-75
2023/09/13 03:58:25;;;;;;;20.95;12.52;;;;;;;18.92;76.17;97819.28;4409341;32;20112;-76
2023/09/13 04:00:53;;;;;;;19.42;12.23;;;;;;;19.24;75.32;97821.09;4409009;32;20090;-75
2023/09/13 04:03:21;;;;;;;18.67;12.05;;;;;;;18.68;78.35;97824.69;4409392;32;20107;-76
2023/09/13 04:05:48;;;;;;;23.25;12.68;;;;;;;18.93;77.69;97821.00;4395576;32;20787;-76
2023/09/13 04:08:15;;;;;;;21.98;12.45;;;;;;;18.92;78.69;97821.09;4409155;32;20089;-75
2023/09/13 04:10:42;;;;;;;19.65;12.40;;;;;;;19.30;76.56;97821.44;4408974;32;20125;-75
2023/09/13 04:13:09;;;;;;;22.42;13.40;;;;;;;19.12;77.86;97830.78;4409177;32;20143;-76
2023/09/13 04:15:36;;;;;;;22.37;13.80;;;;;;;19.27;76.54;97832.16;4408855;32;20122;-76
2023/09/13 04:18:04;;;;;;;28.23;14.05;;;;;;;18.75;78.95;97831.13;4408973;32;20093;-76
2023/09/13 04:20:31;;;;;;;21.50;13.10;;;;;;;19.20;77.35;97835.38;4408992;32;20086;-76
2023/09/13 04:23:02;;;;;;;20.92;14.40;;;;;;;18.66;80.02;97831.00;4409001;32;20144;-76
2023/09/13 04:25:29;;;;;;;25.00;14.00;;;;;;;18.65;80.29;97832.78;4408914;32;20145;-76
2023/09/13 04:27:56;;;;;;;23.98;14.00;;;;;;;18.65;80.44;97832.78;4410762;32;20147;-75
2023/09/13 04:30:23;;;;;;;21.40;13.93;;;;;;;19.01;79.03;97830.81;4410917;32;20090;-76
2023/09/13 04:32:50;;;;;;;21.33;13.90;;;;;;;18.90;79.69;97834.28;4411093;32;20090;-76
2023/09/13 04:35:17;;;;;;;20.58;13.35;;;;;;;18.94;79.69;97829.66;4410575;32;20097;-75
2023/09/13 04:37:44;;;;;;;22.58;13.18;;;;;;;19.23;77.46;97837.75;4411064;32;20094;-76
2023/09/13 04:40:12;;;;;;;21.65;13.85;;;;;;;19.40;75.12;97841.63;4410889;32;20098;-75
2023/09/13 04:42:42;;;;;;;21.12;13.98;;;;;;;19.12;76.53;97841.22;4410597;32;20478;-75
2023/09/13 04:45:09;;;;;;;19.65;12.88;;;;;;;19.69;73.89;97839.25;4397294;32;20106;-75
2023/09/13 04:47:38;;;;;;;22.65;13.50;;;;;;;19.61;73.79;97851.19;4411031;32;20444;-76
2023/09/13 04:50:06;;;;;;;23.67;13.07;;;;;;;19.35;75.58;97853.31;4396878;32;20164;-75
2023/09/13 04:52:36;;;;;;;22.13;12.63;;;;;;;19.34;75.54;97849.00;4411044;32;20136;-75
2023/09/13 04:55:05;;;;;;;24.08;13.35;;;;;;;19.02;77.92;97854.22;4410895;32;20098;-76
2023/09/13 04:57:32;;;;;;;23.30;13.27;;;;;;;18.91;78.41;97845.56;4410812;32;20089;-75
2023/09/13 04:59:59;;;;;;;20.95;13.27;;;;;;;18.94;78.78;97847.97;4410739;32;20455;-76
2023/09/13 05:02:26;;;;;;;21.52;13.15;;;;;;;19.06;78.58;97854.81;4410818;32;20124;-76
2023/09/13 05:04:54;;;;;;;26.25;14.30;;;;;;;19.49;76.11;97853.94;4410557;32;20433;-76
2023/09/13 05:07:21;;;;;;;20.45;13.20;;;;;;;19.51;75.76;97846.78;4410844;32;20151;-75
2023/09/13 05:09:48;;;;;;;23.33;13.57;;;;;;;19.53;76.22;97850.13;4410680;32;20090;-75
2023/09/13 05:12:15;;;;;;;30.75;15.13;;;;;;;20.13;74.05;97846.81;4410280;32;20087;-75
2023/09/13 05:14:42;;;;;;;22.55;15.10;;;;;;;19.81;76.66;97853.94;4410525;32;20125;-75
2023/09/13 05:17:10;;;;;;;21.23;13.85;;;;;;;20.06;77.37;97860.56;4410451;32;20152;-75
2023/09/13 05:19:37;;;;;;;20.23;13.05;;;;;;;20.40;75.66;97859.34;4410660;32;20099;-75
2023/09/13 05:22:04;;;;;;;20.45;12.85;;;;;;;20.97;73.05;97854.47;4410475;32;20090;-74
2023/09/13 05:24:31;;;;;;;24.55;13.38;;;;;;;21.37;70.49;97859.63;4410129;32;20711;-74
2023/09/13 05:26:58;;;;;;;19.67;12.02;;;;;;;22.18;66.81;97850.44;4410721;32;20406;-75
2023/09/13 05:29:25;;;;;;;18.92;11.57;;;;;;;22.97;62.65;97850.00;4410468;32;20253;-75
2023/09/13 05:31:52;;;;;;;18.75;11.10;;;;;;;23.94;57.85;97860.59;4410336;32;20086;-75
2023/09/13 05:34:22;;;;;;;19.05;10.70;;;;;;;24.88;54.90;97862.41;4410548;32;20103;-75
2023/09/13 05:36:49;;;;;;;19.42;11.18;;;;;;;25.21;52.63;97857.28;4410540;32;20372;-75
2023/09/13 05:39:16;;;;;;;17.00;10.55;;;;;;;25.74;50.87;97848.94;4395680;32;20128;-75
2023/09/13 05:41:43;;;;;;;15.10;9.88;;;;;;;26.11;50.11;97851.03;4410291;32;20078;-76
2023/09/13 05:44:10;;;;;;;15.40;10.10;;;;;;;26.94;48.08;97852.44;4410319;32;20141;-76
2023/09/13 05:46:37;;;;;;;14.40;9.52;;;;;;;27.43;46.64;97855.62;4410145;32;20114;-76
2023/09/13 05:49:05;;;;;;;16.65;10.00;;;;;;;27.83;45.69;97851.03;4410296;32;20138;-76
2023/09/13 05:51:32;;;;;;;15.00;8.90;;;;;;;28.37;43.92;97858.81;4410393;32;20094;-76
2023/09/13 05:53:59;;;;;;;15.30;9.95;;;;;;;28.95;42.86;97865.94;4409918;32;20177;-76
2023/09/13 05:56:26;;;;;;;18.70;9.23;;;;;;;29.37;42.13;97862.53;4410367;32;20436;-77
2023/09/13 05:58:53;;;;;;;18.95;10.10;;;;;;;30.19;41.03;97863.88;4410382;32;20086;-75
2023/09/13 06:01:22;;;;;;;14.10;9.27;;;;;;;30.75;40.41;97858.53;4409804;32;20082;-77
2023/09/13 06:03:49;;;;;;;15.68;9.20;;;;;;;30.94;40.73;97857.75;4410115;32;20127;-77
2023/09/13 06:06:16;;;;;;;15.10;8.85;;;;;;;31.32;40.22;97858.13;4411814;32;20114;-83
2023/09/13 06:08:43;;;;;;;13.95;9.32;;;;;;;31.95;38.93;97855.12;4411192;32;20094;-83
2023/09/13 06:11:10;;;;;;;13.10;8.65;;;;;;;32.45;37.49;97848.31;4413117;32;20090;-83
2023/09/13 06:13:37;;;;;;;13.62;9.23;;;;;;;33.53;35.96;97853.81;4397407;32;20116;-83
2023/09/13 06:16:04;;;;;;;18.17;10.18;;;;;;;33.39;36.17;97857.63;4410588;32;20162;-82
2023/09/13 06:18:31;;;;;;;15.50;9.48;;;;;;;33.98;35.55;97856.34;4400698;32;20750;-82
2023/09/13 06:20:59;;;;;;;19.90;9.23;;;;;;;33.89;35.41;97855.81;4411142;32;20070;-83
2023/09/13 06:23:39;;;;;;;17.85;9.38;;;;;;;33.73;35.81;97859.00;4412033;32;20111;-82
2023/09/13 06:26:08;;;;;;;14.07;9.88;;;;;;;33.50;36.54;97862.28;4414303;32;20157;-83
2023/09/13 06:28:35;;;;;;;14.93;9.45;;;;;;;32.83;38.43;97860.94;4400316;32;20119;-83
2023/09/13 06:31:02;;;;;;;15.32;9.50;;;;;;;32.42;39.22;97855.91;4415951;32;20058;-81
2023/09/13 06:33:31;;;;;;;17.40;9.23;;;;;;;33.23;38.01;97866.09;4411303;32;20094;-81
2023/09/13 06:36:08;;;;;;;17.85;9.02;;;;;;;33.10;38.10;97867.00;4397675;32;20116;-81
2023/09/13 06:38:36;;;;;;;18.10;8.73;;;;;;;33.51;37.43;97871.12;4397029;32;20102;-82
2023/09/13 06:41:03;;;;;;;14.15;9.13;;;;;;;32.83;38.47;97857.44;4396568;32;20086;-80
2023/09/13 06:43:31;;;;;;;14.40;8.75;;;;;;;34.14;35.96;97861.16;4409751;32;20118;-81
2023/09/13 06:46:18;;;;;;;17.00;8.70;;;;;;;34.35;35.45;97867.13;4410433;32;20113;-81
2023/09/13 06:48:46;;;;;;;13.45;8.63;;;;;;;34.18;36.72;97881.09;4410085;32;20101;-81
2023/09/13 06:51:13;;;;;;;14.50;9.10;;;;;;;33.50;36.86;97869.47;4409905;32;20121;-82
2023/09/13 06:53:43;;;;;;;13.60;8.35;;;;;;;34.18;36.05;97872.25;4410146;32;20164;-82
2023/09/13 06:56:13;;;;;;;15.98;9.13;;;;;;;34.43;35.32;97870.38;4409787;32;20112;-81
2023/09/13 06:58:44;;;;;;;14.73;8.90;;;;;;;34.05;35.89;97883.09;4410143;32;20086;-81
2023/09/13 07:01:13;;;;;;;18.85;8.70;;;;;;;33.32;37.14;97879.00;4410049;32;20074;-81
2023/09/13 07:04:00;;;;;;;14.73;9.30;;;;;;;32.72;38.62;97883.75;4409459;32;20103;-82
2023/09/13 07:06:34;;;;;;;14.77;9.35;;;;;;;32.18;39.74;97886.72;4410139;32;20102;-82
2023/09/13 07:09:02;;;;;;;13.45;9.48;;;;;;;31.42;40.88;97892.38;4409994;32;20104;-81
2023/09/13 07:11:29;;;;;;;15.73;9.80;;;;;;;31.46;41.21;97896.28;4409586;32;20594;-80
2023/09/13 07:13:58;;;;;;;15.40;9.65;;;;;;;31.37;41.58;97889.50;4409882;32;20106;-81
2023/09/13 07:16:26;;;;;;;13.70;9.07;;;;;;;31.06;41.65;97895.31;4409904;32;20224;-81
2023/09/13 07:18:55;;;;;;;17.08;9.10;;;;;;;30.69;42.81;97888.59;4409452;32;20090;-82
2023/09/13 07:21:22;;;;;;;15.02;9.68;;;;;;;30.14;44.02;97880.44;4409766;32;20070;-81
2023/09/13 07:23:49;;;;;;;16.67;9.65;;;;;;;30.17;44.30;97879.22;4410156;32;20624;-83
2023/09/13 07:26:16;;;;;;;13.95;9.55;;;;;;;29.92;44.70;97873.50;4399559;32;20119;-80
2023/09/13 07:28:43;;;;;;;18.50;9.82;;;;;;;30.26;43.91;97877.25;4413881;32;20157;-81
2023/09/13 07:31:11;;;;;;;13.30;9.32;;;;;;;30.70;42.76;97877.75;4416799;32;20140;-81
2023/09/13 07:33:38;;;;;;;13.35;8.88;;;;;;;30.36;42.74;97881.22;4412499;32;20058;-81
2023/09/13 07:36:05;;;;;;;13.90;9.15;;;;;;;30.70;42.89;97891.06;4411374;32;20118;-80
2023/09/13 07:38:32;;;;;;;13.55;9.10;;;;;;;30.47;43.08;97882.50;4409573;32;20157;-80
2023/09/13 07:40:59;;;;;;;14.77;9.00;;;;;;;30.87;42.32;97893.41;4396260;32;20100;-81
2023/09/13 07:43:27;;;;;;;15.20;10.02;;;;;;;30.64;42.32;97896.38;4409907;32;20098;-80
2023/09/13 07:45:54;;;;;;;14.27;9.85;;;;;;;29.59;44.39;97899.78;4395996;32;20153;-80
2023/09/13 07:48:22;;;;;;;14.65;9.20;;;;;;;29.19;45.18;97894.00;4409716;32;20161;-80
2023/09/13 07:50:49;;;;;;;15.80;10.35;;;;;;;28.98;45.75;97902.75;4409565;32;20086;-79
2023/09/13 07:53:16;;;;;;;14.40;10.18;;;;;;;28.76;46.50;97895.69;4409481;32;20482;-80
2023/09/13 07:55:43;;;;;;;15.15;10.07;;;;;;;29.06;45.88;97894.69;4409330;32;20368;-79
2023/09/13 07:58:10;;;;;;;18.15;10.43;;;;;;;29.13;45.86;97900.06;4410012;32;20216;-79
2023/09/13 08:00:37;;;;;;;16.90;10.38;;;;;;;29.14;46.15;97900.88;4408918;32;20484;-80
2023/09/13 08:03:05;;;;;;;14.55;10.13;;;;;;;29.37;45.70;97904.22;4410925;32;20098;-80
2023/09/13 08:05:32;;;;;;;16.40;10.00;;;;;;;29.47;45.34;97911.91;4411111;32;20442;-80
2023/09/13 08:07:59;;;;;;;15.02;10.05;;;;;;;29.53;45.88;97914.66;4411100;32;20102;-79
2023/09/13 08:10:26;;;;;;;13.48;9.50;;;;;;;30.08;44.66;97925.59;4411156;32;20691;-80
2023/09/13 08:12:53;;;;;;;17.27;10.20;;;;;;;29.90;45.16;97921.56;4411152;32;20114;-80
2023/09/13 08:15:20;;;;;;;14.32;9.70;;;;;;;30.13;44.15;97929.34;4411056;32;20098;-79
2023/09/13 08:18:07;;;;;;;14.87;9.98;;;;;;;29.66;45.48;97922.75;4411162;32;20150;-80
2023/09/13 08:20:35;;;;;;;16.70;10.13;;;;;;;29.77;46.07;97928.56;4410745;32;20492;-79
2023/09/13 08:23:02;;;;;;;13.90;9.40;;;;;;;29.84;46.21;97929.47;4411008;32;20424;-79
2023/09/13 08:25:29;;;;;;;15.70;9.88;;;;;;;29.89;46.29;97929.72;4410952;32;20110;-80
2023/09/13 08:27:56;;;;;;;14.30;9.73;;;;;;;30.34;45.28;97917.84;4410932;32;20078;-80
2023/09/13 08:30:23;;;;;;;20.08;10.15;;;;;;;30.64;44.01;97925.66;4411201;32;20460;-78
2023/09/13 08:32:50;;;;;;;14.60;9.85;;;;;;;30.18;44.75;97934.91;4411243;32;20113;-80
2023/09/13 08:35:17;;;;;;;16.73;10.57;;;;;;;30.18;45.45;97929.59;4410548;32;20116;-80
2023/09/13 08:37:44;;;;;;;16.23;10.48;;;;;;;30.42;44.65;97927.53;4411088;32;20153;-79
2023/09/13 08:40:11;;;;;;;13.80;9.63;;;;;;;30.60;45.13;97927.00;4410911;32;20082;-79
2023/09/13 08:42:40;;;;;;;13.82;9.65;;;;;;;31.43;42.56;97933.19;4410467;32;20094;-80
2023/09/13 08:45:08;;;;;;;15.52;9.57;;;;;;;31.59;41.83;97931.00;4397233;32;20165;-80
2023/09/13 08:47:38;;;;;;;24.65;10.45;;;;;;;31.52;41.38;97937.31;4411113;32;20090;-80
2023/09/13 08:50:26;;;;;;;16.85;9.57;;;;;;;31.56;41.23;97934.03;4399725;32;20077;-80
2023/09/13 08:52:53;;;;;;;15.40;9.85;;;;;;;32.12;39.45;97938.28;4410900;32;20094;-80
2023/09/13 08:55:20;;;;;;;17.50;9.85;;;;;;;32.07;40.32;97933.53;4396900;32;20114;-80
2023/09/13 08:57:48;;;;;;;16.42;9.60;;;;;;;32.66;38.84;97931.88;4410962;32;20081;-79
2023/09/13 09:00:15;;;;;;;14.20;9.15;;;;;;;32.55;37.94;97929.84;4397432;32;20143;-79
2023/09/13 09:02:43;;;;;;;14.45;9.20;;;;;;;32.12;38.74;97925.75;4410467;32;20091;-80
2023/09/13 09:05:12;;;;;;;14.25;10.15;;;;;;;32.62;38.26;97928.78;4397305;32;20141;-80
2023/09/13 09:07:41;;;;;;;14.07;8.45;;;;;;;33.05;38.08;97941.63;4397431;32;20094;-80
2023/09/13 09:10:11;;;;;;;17.15;8.90;;;;;;;33.92;36.15;97938.38;4396685;32;20157;-79
2023/09/13 09:12:42;;;;;;;13.18;7.70;;;;;;;34.05;35.25;97940.12;4397852;32;20156;-80
2023/09/13 09:15:10;;;;;;;13.95;8.52;;;;;;;32.95;36.14;97931.38;4398284;32;20118;-80
2023/09/13 09:17:38;;;;;;;13.35;8.30;;;;;;;32.54;37.34;97929.03;4397933;32;20096;-79
2023/09/13 09:20:06;;;;;;;13.10;7.82;;;;;;;32.06;36.88;97925.72;4395675;32;20105;-79
2023/09/13 09:22:33;;;;;;;14.00;8.48;;;;;;;31.76;36.57;97931.44;4395528;32;20409;-78
2023/09/13 09:25:00;;;;;;;11.77;8.15;;;;;;;31.83;36.63;97926.13;4396338;32;20063;-81
2023/09/13 09:27:27;;;;;;;14.00;8.32;;;;;;;31.52;36.88;97924.00;4395879;32;20098;-79
2023/09/13 09:30:03;;;;;;;13.02;8.52;;;;;;;31.21;36.75;97924.50;4395155;32;20483;-79
2023/09/13 09:32:30;;;;;;;13.18;8.10;;;;;;;31.56;36.41;97927.87;4395489;32;20161;-79
2023/09/13 09:35:00;;;;;;;14.70;8.70;;;;;;;31.47;36.60;97926.44;4395489;32;20142;-79
2023/09/13 09:37:31;;;;;;;14.45;8.90;;;;;;;31.49;36.88;97919.87;4395372;32;20082;-79
2023/09/13 09:39:59;;;;;;;16.27;8.50;;;;;;;31.53;36.87;97917.63;4395530;32;20160;-79
2023/09/13 09:42:26;;;;;;;17.12;9.25;;;;;;;31.47;36.90;97926.44;4395495;32;20099;-79
2023/09/13 09:44:55;;;;;;;14.10;8.95;;;;;;;32.19;36.52;97921.19;4395171;32;20433;-78
2023/09/13 09:47:21;;;;;;;14.25;8.32;;;;;;;32.14;36.78;97930.88;4396456;32;20129;-79
2023/09/13 09:49:51;;;;;;;12.52;8.93;;;;;;;32.20;36.05;97927.34;4395475;32;20105;-79
2023/09/13 09:52:19;;;;;;;15.18;9.80;;;;;;;31.98;35.86;97925.94;4395353;32;20433;-80
2023/09/13 09:54:47;;;;;;;14.13;9.35;;;;;;;32.11;35.96;97931.25;4395843;32;20158;-81
2023/09/13 09:57:25;;;;;;;13.55;8.70;;;;;;;31.80;35.82;97919.38;4395679;32;20083;-81
2023/09/13 09:59:53;;;;;;;15.40;9.13;;;;;;;32.15;35.86;97929.84;4395162;32;20151;-80
2023/09/13 10:02:27;;;;;;;14.38;9.57;;;;;;;32.32;36.38;97928.41;4394667;32;20169;-81
2023/09/13 10:04:54;;;;;;;13.18;8.93;;;;;;;32.27;36.14;97927.37;4395116;32;20484;-80
2023/09/13 10:07:21;;;;;;;14.95;8.95;;;;;;;32.26;36.44;97925.72;4395531;32;20105;-80
2023/09/13 10:09:48;;;;;;;14.90;9.68;;;;;;;32.25;36.89;97935.59;4394077;32;20102;-79
2023/09/13 10:12:15;;;;;;;12.73;8.95;;;;;;;32.19;36.65;97936.41;4395108;32;20146;-80
2023/09/13 10:14:44;;;;;;;14.63;8.93;;;;;;;32.02;37.23;97937.84;4395593;32;20394;-80
2023/09/13 10:17:12;;;;;;;15.05;9.73;;;;;;;32.12;36.79;97932.94;4395998;32;20516;-82
2023/09/13 10:19:41;;;;;;;18.55;9.55;;;;;;;31.63;38.25;97929.56;4410142;32;20085;-82
2023/09/13 10:22:13;;;;;;;15.73;10.00;;;;;;;31.61;38.37;97931.59;4410317;32;20515;-82
2023/09/13 10:24:47;;;;;;;14.85;10.07;;;;;;;31.43;38.36;97927.84;4411366;32;20101;-82
2023/09/13 10:27:16;;;;;;;14.93;8.90;;;;;;;31.90;38.29;97926.94;4396813;32;20173;-82
2023/09/13 10:29:53;;;;;;;13.80;8.93;;;;;;;31.98;38.08;97921.41;4397177;32;20085;-82
2023/09/13 10:32:22;;;;;;;15.90;9.77;;;;;;;32.33;37.12;97927.41;4400042;32;20129;-82
2023/09/13 10:34:54;;;;;;;13.77;9.40;;;;;;;32.40;37.59;97922.03;4397379;32;20142;-82
2023/09/13 10:37:41;;;;;;;14.50;9.02;;;;;;;32.52;37.48;97921.19;4397627;32;20098;-82
2023/09/13 10:40:50;;;;;;;17.87;9.50;;;;;;;32.58;36.60;97921.41;4413539;32;20096;-82
2023/09/13 10:43:18;;;;;;;14.95;9.07;;;;;;;32.49;37.23;97918.94;4400637;32;20098;-82
2023/09/13 10:45:45;;;;;;;16.58;9.88;;;;;;;32.67;37.33;97914.81;4399922;32;20445;-82
2023/09/13 10:48:12;;;;;;;14.45;9.70;;;;;;;32.94;36.63;97920.91;4416031;32;20104;-81
2023/09/13 10:50:39;;;;;;;17.62;9.48;;;;;;;32.07;37.84;97917.50;4406958;32;20077;-82
2023/09/13 10:53:06;;;;;;;13.52;9.10;;;;;;;32.48;37.26;97917.31;4411603;32;20101;-84
2023/09/13 10:55:34;;;;;;;14.60;9.18;;;;;;;32.60;36.16;97914.00;4384152;32;20161;-82
2023/09/13 10:58:03;;;;;;;14.40;9.45;;;;;;;32.53;36.50;97909.47;4411576;32;20100;-83
2023/09/13 11:00:33;;;;;;;14.68;9.23;;;;;;;32.70;36.10;97912.53;4397515;32;20121;-82
2023/09/13 11:03:02;;;;;;;13.23;9.27;;;;;;;32.86;36.51;97916.66;4410998;32;20522;-82
2023/09/13 11:05:32;;;;;;;16.15;9.30;;;;;;;32.63;36.91;97916.25;4411129;32;20159;-82
2023/09/13 11:07:59;;;;;;;12.65;9.05;;;;;;;33.06;35.00;97905.84;4416644;32;20090;-82
2023/09/13 11:10:30;;;;;;;13.27;8.88;;;;;;;33.17;35.02;97894.50;4413358;32;20159;-83
2023/09/13 11:13:10;;;;;;;14.45;8.93;;;;;;;34.03;33.98;97906.53;4412040;32;20498;-81
2023/09/13 11:15:48;;;;;;;15.52;8.95;;;;;;;34.11;33.64;97919.66;4416306;32;20165;-82
2023/09/13 11:18:16;;;;;;;15.80;9.63;;;;;;;34.30;33.14;97915.19;4410483;32;20086;-80
2023/09/13 11:20:43;;;;;;;15.10;8.68;;;;;;;34.07;33.31;97908.59;4409607;32;20104;-80
2023/09/13 11:23:18;;;;;;;14.73;9.20;;;;;;;34.50;33.64;97900.59;4409799;32;20099;-80
2023/09/13 11:26:04;;;;;;;15.30;9.20;;;;;;;34.36;33.53;97895.56;4398155;32;20128;-81
2023/09/13 11:28:39;;;;;;;13.55;8.60;;;;;;;34.90;31.88;97892.16;4396904;32;20105;-81
2023/09/13 11:31:09;;;;;;;14.20;9.75;;;;;;;34.39;33.40;97895.97;4396756;32;20077;-80